createdAt,value
2023-03-26T00:01:46.506Z,11.50
2023-03-26T00:04:14.483Z,11.50
2023-03-26T00:06:42.029Z,11.50
2023-03-26T00:09:13.258Z,11.40
2023-03-26T00:11:41.408Z,11.50
2023-03-26T00:14:13.650Z,11.40
2023-03-26T00:16:42.670Z,11.40
2023-03-26T00:19:11.445Z,11.40
2023-03-26T00:21:39.023Z,11.40
2023-03-26T00:24:14.886Z,11.30
2023-03-26T00:26:43.586Z,11.30
2023-03-26T00:29:12.036Z,11.30
2023-03-26T00:31:41.088Z,11.30
2023-03-26T00:34:10.441Z,11.30
2023-03-26T00:36:38.460Z,11.30
2023-03-26T00:39:06.409Z,11.30
2023-03-26T00:41:37.304Z,11.30
2023-03-26T00:44:05.557Z,11.30
2023-03-26T00:46:33.364Z,11.30
2023-03-26T00:49:03.680Z,11.30
2023-03-26T00:51:33.493Z,11.30
2023-03-26T00:54:01.504Z,11.20
2023-03-26T00:56:29.196Z,11.30
2023-03-26T00:58:57.771Z,11.20
2023-03-26T01:01:28.794Z,11.30
2023-03-26T01:04:08.769Z,11.20
2023-03-26T01:06:41.889Z,11.30
2023-03-26T01:09:17.175Z,11.30
2023-03-26T01:11:45.852Z,11.20
2023-03-26T01:14:18.350Z,11.20
2023-03-26T01:16:55.075Z,11.20
2023-03-26T01:19:50.946Z,11.20
2023-03-26T01:22:24.737Z,11.20
2023-03-26T01:24:53.882Z,11.20
2023-03-26T01:27:34.135Z,11.20
2023-03-26T01:30:07.531Z,11.20
2023-03-26T01:32:59.179Z,11.20
2023-03-26T01:35:42.235Z,11.20
2023-03-26T01:38:40.987Z,11.20
2023-03-26T01:41:09.178Z,11.20
2023-03-26T01:44:18.662Z,11.20
2023-03-26T01:46:48.060Z,11.20
2023-03-26T01:49:17.947Z,11.20
2023-03-26T01:51:45.400Z,11.10
2023-03-26T01:54:16.966Z,11.20
2023-03-26T01:57:10.476Z,11.20
2023-03-26T01:59:43.836Z,11.20
2023-03-26T02:02:27.045Z,11.10
2023-03-26T02:04:54.514Z,11.10
2023-03-26T02:07:37.847Z,11.10
2023-03-26T02:10:13.215Z,11.10
2023-03-26T02:12:42.851Z,11.10
2023-03-26T02:15:11.812Z,11.10
2023-03-26T02:17:40.740Z,11.10
2023-03-26T02:20:10.553Z,11.10
2023-03-26T02:22:41.252Z,11.10
2023-03-26T02:25:13.499Z,11.10
2023-03-26T02:27:42.974Z,11.10
2023-03-26T02:30:16.830Z,11.10
2023-03-26T02:32:47.111Z,11.10
2023-03-26T02:35:14.870Z,11.10
2023-03-26T02:37:46.911Z,11.10
2023-03-26T02:40:21.074Z,11.10
2023-03-26T02:42:49.088Z,11.10
2023-03-26T02:45:16.651Z,11.10
2023-03-26T02:48:13.427Z,11.10
2023-03-26T02:51:04.495Z,11.10
2023-03-26T02:54:01.178Z,11.10
2023-03-26T02:56:37.504Z,11.10
2023-03-26T02:59:23.544Z,11.10
2023-03-26T03:02:13.350Z,11.10
2023-03-26T03:04:41.271Z,11.10
2023-03-26T03:07:08.936Z,11.10
2023-03-26T03:09:36.976Z,11.20
2023-03-26T03:12:30.988Z,11.20
2023-03-26T03:14:58.644Z,11.20
2023-03-26T03:17:26.684Z,11.20
2023-03-26T03:19:54.176Z,11.20
2023-03-26T03:22:21.920Z,11.20
2023-03-26T03:24:57.701Z,11.20
2023-03-26T03:27:26.148Z,11.20
2023-03-26T03:30:09.087Z,11.10
2023-03-26T03:32:45.843Z,11.10
2023-03-26T03:35:15.865Z,11.10
2023-03-26T03:37:48.094Z,11.00
2023-03-26T03:40:15.608Z,11.10
2023-03-26T03:42:43.623Z,11.00
2023-03-26T03:45:13.712Z,11.00
2023-03-26T03:47:47.043Z,11.00
2023-03-26T03:50:18.096Z,11.00
2023-03-26T03:53:05.713Z,10.90
2023-03-26T03:55:38.170Z,10.90
2023-03-26T03:58:06.086Z,10.90
2023-03-26T04:00:33.513Z,10.80
2023-03-26T04:03:34.144Z,10.80
2023-03-26T04:06:07.414Z,10.70
2023-03-26T04:08:35.572Z,10.70
2023-03-26T04:11:06.498Z,10.70
2023-03-26T04:13:53.904Z,10.60
2023-03-26T04:16:40.033Z,10.60
2023-03-26T04:19:08.525Z,10.60
2023-03-26T04:21:37.861Z,10.60
2023-03-26T04:24:07.250Z,10.50
2023-03-26T04:26:53.308Z,10.50
2023-03-26T04:29:27.838Z,10.50
2023-03-26T04:32:06.425Z,10.50
2023-03-26T04:34:34.722Z,10.50
2023-03-26T04:37:22.668Z,10.40
2023-03-26T04:40:02.642Z,10.40
2023-03-26T04:42:41.755Z,10.40
2023-03-26T04:45:23.064Z,10.40
2023-03-26T04:48:00.064Z,10.30
2023-03-26T04:50:27.765Z,10.30
2023-03-26T04:52:57.323Z,10.30
2023-03-26T04:56:32.892Z,10.30
2023-03-26T04:59:34.418Z,10.30
2023-03-26T05:02:06.171Z,10.30
2023-03-26T05:04:45.927Z,10.30
2023-03-26T05:07:18.725Z,10.20
2023-03-26T05:09:49.809Z,10.30
2023-03-26T05:12:23.806Z,10.20
2023-03-26T05:14:56.951Z,10.30
2023-03-26T05:17:51.568Z,10.30
2023-03-26T05:20:32.511Z,10.30
2023-03-26T05:23:00.365Z,10.30
2023-03-26T05:25:34.870Z,10.30
2023-03-26T05:28:04.123Z,10.30
2023-03-26T05:30:47.477Z,10.30
2023-03-26T05:33:16.360Z,10.30
2023-03-26T05:36:01.518Z,10.30
2023-03-26T05:38:31.902Z,10.30
2023-03-26T05:41:02.676Z,10.30
2023-03-26T05:43:31.297Z,10.30
2023-03-26T05:46:24.881Z,10.40
2023-03-26T05:48:53.984Z,10.40
2023-03-26T05:51:23.498Z,10.40
2023-03-26T05:54:01.038Z,10.40
2023-03-26T05:56:47.325Z,10.40
2023-03-26T05:59:53.037Z,10.40
2023-03-26T06:02:39.284Z,10.30
2023-03-26T06:05:23.842Z,10.30
2023-03-26T06:08:07.077Z,10.30
2023-03-26T06:10:39.376Z,10.30
2023-03-26T06:13:07.167Z,10.30
2023-03-26T06:15:38.383Z,10.30
2023-03-26T06:18:20.727Z,10.30
2023-03-26T06:21:20.879Z,10.30
2023-03-26T06:23:56.516Z,10.30
2023-03-26T06:26:52.281Z,10.30
2023-03-26T06:29:50.240Z,10.30
2023-03-26T06:32:37.971Z,10.30
2023-03-26T06:35:11.884Z,10.20
2023-03-26T06:37:39.429Z,10.30
2023-03-26T06:40:08.708Z,10.20
2023-03-26T06:43:08.301Z,10.30
2023-03-26T06:45:53.193Z,10.20
2023-03-26T06:48:39.842Z,10.20
2023-03-26T06:51:21.912Z,10.20
2023-03-26T06:54:18.070Z,10.20
2023-03-26T06:57:08.404Z,10.20
2023-03-26T06:59:55.061Z,10.20
2023-03-26T07:02:41.261Z,10.10
2023-03-26T07:05:43.882Z,10.10
2023-03-26T07:08:31.683Z,10.10
2023-03-26T07:11:37.005Z,10.10
2023-03-26T07:14:33.208Z,10.10
2023-03-26T07:17:16.270Z,10.00
2023-03-26T07:19:58.144Z,10.00
2023-03-26T07:22:27.977Z,10.10
2023-03-26T07:25:08.416Z,10.10
2023-03-26T07:28:08.060Z,10.10
2023-03-26T07:31:20.716Z,10.10
2023-03-26T07:34:07.170Z,10.10
2023-03-26T07:36:57.250Z,10.00
2023-03-26T07:40:16.529Z,10.00
2023-03-26T07:43:19.770Z,10.10
2023-03-26T07:46:11.696Z,10.10
2023-03-26T07:48:51.915Z,10.10
2023-03-26T07:51:36.939Z,10.10
2023-03-26T07:54:27.556Z,10.10
2023-03-26T07:57:45.453Z,10.10
2023-03-26T08:00:54.728Z,10.20
2023-03-26T08:03:55.591Z,10.20
2023-03-26T08:06:50.711Z,10.10
2023-03-26T08:09:54.883Z,10.10
2023-03-26T08:13:16.679Z,10.20
2023-03-26T08:15:47.756Z,10.20
2023-03-26T08:18:15.987Z,10.10
2023-03-26T08:20:50.366Z,10.10
2023-03-26T08:23:50.902Z,10.10
2023-03-26T08:26:32.136Z,10.10
2023-03-26T08:29:17.854Z,10.10
2023-03-26T08:31:47.903Z,10.20
2023-03-26T08:34:15.803Z,10.20
2023-03-26T08:36:43.625Z,10.20
2023-03-26T08:39:11.724Z,10.20
2023-03-26T08:41:49.837Z,10.20
2023-03-26T08:44:17.489Z,10.20
2023-03-26T08:46:57.200Z,10.20
2023-03-26T08:49:51.062Z,10.20
2023-03-26T08:53:12.660Z,10.20
2023-03-26T08:56:18.348Z,10.20
2023-03-26T08:59:37.970Z,10.20
2023-03-26T09:02:36.646Z,10.20
2023-03-26T09:05:37.361Z,10.20
2023-03-26T09:08:33.492Z,10.30
2023-03-26T09:11:30.485Z,10.30
2023-03-26T09:14:19.955Z,10.30
2023-03-26T09:17:09.929Z,10.30
2023-03-26T09:19:54.121Z,10.30
2023-03-26T09:22:27.062Z,10.30
2023-03-26T09:25:20.320Z,10.40
2023-03-26T09:27:53.720Z,10.40
2023-03-26T09:30:58.137Z,10.50
2023-03-26T09:33:44.159Z,10.50
2023-03-26T09:36:36.712Z,10.50
2023-03-26T09:39:22.414Z,10.60
2023-03-26T09:42:15.976Z,10.70
2023-03-26T09:44:49.218Z,10.60
2023-03-26T09:47:22.370Z,10.70
2023-03-26T09:50:29.552Z,10.70
2023-03-26T09:53:03.169Z,10.80
2023-03-26T09:55:40.364Z,10.80
2023-03-26T09:58:50.219Z,10.90
2023-03-26T10:01:46.709Z,10.90
2023-03-26T10:04:33.481Z,11.00
2023-03-26T10:07:31.466Z,11.00
2023-03-26T10:10:17.888Z,11.10
2023-03-26T10:12:56.021Z,11.10
2023-03-26T10:16:06.061Z,11.10
2023-03-26T10:18:55.920Z,11.30
2023-03-26T10:21:38.391Z,11.40
2023-03-26T10:24:18.079Z,11.40
2023-03-26T10:27:41.478Z,11.50
2023-03-26T10:30:39.142Z,11.50
2023-03-26T10:33:31.891Z,11.60
2023-03-26T10:36:14.390Z,11.60
2023-03-26T10:38:58.937Z,11.70
2023-03-26T10:41:41.375Z,11.70
2023-03-26T10:44:43.571Z,11.70
2023-03-26T10:47:20.040Z,11.80
2023-03-26T10:49:56.357Z,11.80
2023-03-26T10:52:29.606Z,11.90
2023-03-26T10:55:46.749Z,11.90
2023-03-26T10:58:48.338Z,12.00
2023-03-26T11:01:38.864Z,12.00
2023-03-26T11:04:18.180Z,12.00
2023-03-26T11:07:05.024Z,12.00
2023-03-26T11:10:04.487Z,12.10
2023-03-26T11:12:46.503Z,12.00
2023-03-26T11:15:43.091Z,12.10
2023-03-26T11:18:21.401Z,12.10
2023-03-26T11:21:26.187Z,12.10
2023-03-26T11:24:18.406Z,12.10
2023-03-26T11:26:52.935Z,12.10
2023-03-26T11:29:39.041Z,12.20
2023-03-26T11:32:22.448Z,12.20
2023-03-26T11:35:01.754Z,12.20
2023-03-26T11:37:42.219Z,12.20
2023-03-26T11:40:21.258Z,12.30
2023-03-26T11:42:52.074Z,12.30
2023-03-26T11:45:25.036Z,12.40
2023-03-26T11:47:58.565Z,12.50
2023-03-26T11:50:30.548Z,12.60
2023-03-26T11:53:03.140Z,12.70
2023-03-26T11:55:31.580Z,12.80
2023-03-26T11:58:00.149Z,12.90
2023-03-26T12:00:29.672Z,13.10
2023-03-26T12:02:59.158Z,13.20
2023-03-26T12:05:34.185Z,13.30
2023-03-26T12:08:17.353Z,13.40
2023-03-26T12:10:52.344Z,13.40
2023-03-26T12:13:43.572Z,13.50
2023-03-26T12:16:17.173Z,13.50
2023-03-26T12:18:47.598Z,13.60
2023-03-26T12:21:18.700Z,13.60
2023-03-26T12:24:03.704Z,13.50
2023-03-26T12:26:46.272Z,13.50
2023-03-26T12:29:17.126Z,13.40
2023-03-26T12:32:03.134Z,13.30
2023-03-26T12:34:36.224Z,13.40
2023-03-26T12:37:05.922Z,13.30
2023-03-26T12:40:09.945Z,13.30
2023-03-26T12:44:47.212Z,13.20
2023-03-26T12:45:16.865Z,13.20
2023-03-26T12:48:00.393Z,13.10
2023-03-26T12:50:59.259Z,13.00
2023-03-26T12:53:35.425Z,13.00
2023-03-26T12:56:21.690Z,12.90
2023-03-26T12:59:09.372Z,12.70
2023-03-26T13:02:07.074Z,12.70
2023-03-26T13:04:37.648Z,12.60
2023-03-26T13:07:52.820Z,12.60
2023-03-26T13:10:35.175Z,12.40
2023-03-26T13:13:17.123Z,12.30
2023-03-26T13:15:52.628Z,12.20
2023-03-26T13:18:37.656Z,12.10
2023-03-26T13:21:13.042Z,12.00
2023-03-26T13:23:53.886Z,12.00
2023-03-26T13:26:38.883Z,11.90
2023-03-26T13:29:33.096Z,11.90
2023-03-26T13:32:41.024Z,11.90
2023-03-26T13:35:12.859Z,11.80
2023-03-26T13:37:52.752Z,11.80
2023-03-26T13:40:41.812Z,11.70
2023-03-26T13:43:14.961Z,11.70
2023-03-26T13:45:57.724Z,11.70
2023-03-26T13:48:41.976Z,11.60
2023-03-26T13:51:26.394Z,11.60
2023-03-26T13:54:13.576Z,11.60
2023-03-26T13:56:50.831Z,11.60
2023-03-26T13:59:30.965Z,11.50
2023-03-26T14:02:07.846Z,11.50
2023-03-26T14:04:49.527Z,11.50
2023-03-26T14:07:23.684Z,11.40
2023-03-26T14:09:56.918Z,11.50
2023-03-26T14:12:52.510Z,11.40
2023-03-26T14:15:29.479Z,11.40
2023-03-26T14:18:18.742Z,11.40
2023-03-26T14:21:07.042Z,11.40
2023-03-26T14:23:40.372Z,11.40
2023-03-26T14:26:37.880Z,11.40
2023-03-26T14:29:18.666Z,11.40
2023-03-26T14:31:57.937Z,11.40
2023-03-26T14:34:47.027Z,11.40
2023-03-26T14:37:27.779Z,11.40
2023-03-26T14:40:15.183Z,11.30
2023-03-26T14:43:04.267Z,11.30
2023-03-26T14:45:46.907Z,11.30
2023-03-26T14:48:48.048Z,11.30
2023-03-26T14:51:21.213Z,11.30
2023-03-26T14:53:56.993Z,11.30
2023-03-26T14:56:24.720Z,11.20
2023-03-26T14:59:23.395Z,11.30
2023-03-26T15:02:25.089Z,11.30
2023-03-26T15:04:55.484Z,11.30
2023-03-26T15:07:44.541Z,11.20
2023-03-26T15:10:42.288Z,11.20
2023-03-26T15:13:28.534Z,11.20
2023-03-26T15:15:56.104Z,11.20
2023-03-26T15:18:43.148Z,11.20
2023-03-26T15:21:38.233Z,11.20
2023-03-26T15:24:21.306Z,11.20
2023-03-26T15:27:26.828Z,11.20
2023-03-26T15:30:38.967Z,11.20
2023-03-26T15:33:44.960Z,11.20
2023-03-26T15:36:21.575Z,11.20
2023-03-26T15:39:20.485Z,11.20
2023-03-26T15:42:00.706Z,11.20
2023-03-26T15:44:50.911Z,11.20
2023-03-26T15:47:37.305Z,11.20
2023-03-26T15:50:08.161Z,11.20
2023-03-26T15:53:00.542Z,11.20
2023-03-26T15:55:31.356Z,11.20
2023-03-26T15:58:03.052Z,11.20
2023-03-26T16:00:35.863Z,11.20
2023-03-26T16:03:31.393Z,11.10
2023-03-26T16:06:20.624Z,11.10
2023-03-26T16:09:27.880Z,11.10
2023-03-26T16:11:58.740Z,11.10
2023-03-26T16:14:43.899Z,11.10
2023-03-26T16:17:20.700Z,11.20
2023-03-26T16:19:55.397Z,11.10
2023-03-26T16:23:03.567Z,11.10
2023-03-26T16:25:34.734Z,11.10
2023-03-26T16:28:21.418Z,11.10
2023-03-26T16:31:23.545Z,11.10
2023-03-26T16:34:09.020Z,11.10
2023-03-26T16:36:38.934Z,11.10
2023-03-26T16:39:07.261Z,11.00
2023-03-26T16:41:46.918Z,11.00
2023-03-26T16:44:39.080Z,11.00
2023-03-26T16:47:28.274Z,10.90
2023-03-26T16:50:12.149Z,10.90
2023-03-26T16:52:52.034Z,10.80
2023-03-26T16:55:42.735Z,10.80
2023-03-26T16:59:01.836Z,10.70
2023-03-26T17:01:54.734Z,10.70
2023-03-26T17:04:30.477Z,10.60
2023-03-26T17:07:13.747Z,10.60
2023-03-26T17:10:31.837Z,10.50
2023-03-26T17:13:07.337Z,10.50
2023-03-26T17:15:48.406Z,10.40
2023-03-26T17:18:41.011Z,10.40
2023-03-26T17:21:11.566Z,10.40
2023-03-26T17:24:00.897Z,10.40
2023-03-26T17:26:46.507Z,10.40
2023-03-26T17:29:44.939Z,10.40
2023-03-26T17:32:15.086Z,10.40
2023-03-26T17:34:55.907Z,10.30
2023-03-26T17:37:23.888Z,10.40
2023-03-26T17:39:51.528Z,10.30
2023-03-26T17:42:35.585Z,10.30
2023-03-26T17:45:11.093Z,10.30
2023-03-26T17:47:41.361Z,10.30
2023-03-26T17:50:17.941Z,10.30
2023-03-26T17:52:48.493Z,10.30
2023-03-26T17:55:21.113Z,10.30
2023-03-26T17:57:53.190Z,10.20
2023-03-26T18:00:28.756Z,10.20
2023-03-26T18:03:04.705Z,10.20
2023-03-26T18:05:34.644Z,10.20
2023-03-26T18:08:13.301Z,10.20
2023-03-26T18:11:10.346Z,10.20
2023-03-26T18:14:07.479Z,10.20
2023-03-26T18:16:38.117Z,10.20
2023-03-26T18:19:23.745Z,10.10
2023-03-26T18:22:05.689Z,10.10
2023-03-26T18:24:38.268Z,10.10
2023-03-26T18:27:12.301Z,10.10
2023-03-26T18:29:45.871Z,10.10
2023-03-26T18:32:13.408Z,10.10
2023-03-26T18:34:49.969Z,10.00
2023-03-26T18:37:24.086Z,10.10
2023-03-26T18:40:00.726Z,10.10
2023-03-26T18:42:31.725Z,10.00
2023-03-26T18:45:02.631Z,10.00
2023-03-26T18:47:31.998Z,10.00
2023-03-26T18:50:00.270Z,10.00
2023-03-26T18:52:29.541Z,9.90
2023-03-26T18:54:59.339Z,9.90
2023-03-26T18:57:28.947Z,9.90
2023-03-26T19:00:13.559Z,9.90
2023-03-26T19:02:41.305Z,9.90
2023-03-26T19:05:14.368Z,9.90
2023-03-26T19:07:42.849Z,9.90
2023-03-26T19:10:22.083Z,9.70
2023-03-26T19:13:01.522Z,9.90
2023-03-26T19:15:32.450Z,9.80
2023-03-26T19:18:07.374Z,9.80
2023-03-26T19:20:44.524Z,9.80
2023-03-26T19:23:16.152Z,9.80
2023-03-26T19:26:04.133Z,9.70
2023-03-26T19:28:37.744Z,9.70
2023-03-26T19:31:19.314Z,9.70
2023-03-26T19:33:55.060Z,9.70
2023-03-26T19:36:30.323Z,9.60
2023-03-26T19:39:04.706Z,9.60
2023-03-26T19:41:36.605Z,9.60
2023-03-26T19:44:24.810Z,9.60
2023-03-26T19:47:50.028Z,9.60
2023-03-26T19:49:56.619Z,9.60
2023-03-26T19:52:32.426Z,9.60
2023-03-26T19:55:21.287Z,9.60
2023-03-26T19:57:49.273Z,9.60
2023-03-26T20:00:17.020Z,9.60
2023-03-26T20:02:46.451Z,9.60
2023-03-26T20:05:25.373Z,9.60
2023-03-26T20:07:56.159Z,9.60
2023-03-26T20:10:24.382Z,9.50
2023-03-26T20:12:52.312Z,9.50
2023-03-26T20:15:25.828Z,9.50
2023-03-26T20:17:54.467Z,9.50
2023-03-26T20:20:24.920Z,9.50
2023-03-26T20:22:54.200Z,9.50
2023-03-26T20:25:31.325Z,9.50
2023-03-26T20:27:59.315Z,9.40
2023-03-26T20:30:37.371Z,9.40
2023-03-26T20:33:13.433Z,9.40
2023-03-26T20:35:41.389Z,9.40
2023-03-26T20:38:10.316Z,9.40
2023-03-26T20:40:38.694Z,9.30
2023-03-26T20:43:14.398Z,9.30
2023-03-26T20:45:42.283Z,9.30
2023-03-26T20:48:12.384Z,9.20
2023-03-26T20:50:50.507Z,9.20
2023-03-26T20:53:20.303Z,9.10
2023-03-26T20:55:48.788Z,9.10
2023-03-26T20:58:30.784Z,9.10
2023-03-26T21:01:01.254Z,9.00
2023-03-26T21:03:29.758Z,9.00
2023-03-26T21:06:03.775Z,8.90
2023-03-26T21:08:34.238Z,8.90
2023-03-26T21:11:26.611Z,8.80
2023-03-26T21:14:00.181Z,8.80
2023-03-26T21:16:28.267Z,8.80
2023-03-26T21:18:56.596Z,8.80
2023-03-26T21:21:47.549Z,8.80
2023-03-26T21:24:34.748Z,8.70
2023-03-26T21:27:25.260Z,8.70
2023-03-26T21:29:54.822Z,8.70
2023-03-26T21:32:23.184Z,8.70
2023-03-26T21:34:58.577Z,8.70
2023-03-26T21:37:27.515Z,8.70
2023-03-26T21:39:55.291Z,8.70
2023-03-26T21:42:26.759Z,8.70
2023-03-26T21:44:55.986Z,8.70
2023-03-26T21:47:24.102Z,8.70
2023-03-26T21:49:52.342Z,8.70
2023-03-26T21:52:22.564Z,8.70
2023-03-26T21:54:51.397Z,8.70
2023-03-26T21:57:55.740Z,8.70
2023-03-26T22:00:33.470Z,8.70
2023-03-26T22:03:44.158Z,8.70
2023-03-26T22:06:16.055Z,8.70
2023-03-26T22:08:43.739Z,8.70
2023-03-26T22:11:12.247Z,8.70
2023-03-26T22:13:39.915Z,8.60
2023-03-26T22:16:09.450Z,8.60
2023-03-26T22:18:36.919Z,8.60
2023-03-26T22:21:05.908Z,8.60
2023-03-26T22:23:38.114Z,8.60
2023-03-26T22:26:06.187Z,8.60
2023-03-26T22:28:33.661Z,8.70
2023-03-26T22:31:08.540Z,8.60
2023-03-26T22:33:36.283Z,8.60
2023-03-26T22:36:04.075Z,8.70
2023-03-26T22:38:31.492Z,8.70
2023-03-26T22:40:59.104Z,8.60
2023-03-26T22:43:26.777Z,8.70
2023-03-26T22:45:55.093Z,8.70
2023-03-26T22:48:23.804Z,8.70
2023-03-26T22:51:09.117Z,8.70
2023-03-26T22:53:36.615Z,8.70
2023-03-26T22:56:04.403Z,8.80
2023-03-26T22:58:34.053Z,8.70
2023-03-26T23:01:11.170Z,8.70
2023-03-26T23:03:39.577Z,8.70
2023-03-26T23:06:09.738Z,8.70
2023-03-26T23:08:38.227Z,8.70
2023-03-26T23:11:17.050Z,8.70
2023-03-26T23:13:46.047Z,8.70
2023-03-26T23:16:15.176Z,8.70
2023-03-26T23:18:43.398Z,8.70
2023-03-26T23:21:19.529Z,8.70
2023-03-26T23:23:48.654Z,8.70
2023-03-26T23:26:16.677Z,8.70
2023-03-26T23:28:44.115Z,8.70
2023-03-26T23:31:12.648Z,8.70
2023-03-26T23:33:50.424Z,8.70
2023-03-26T23:36:20.456Z,8.70
2023-03-26T23:38:48.908Z,8.70
2023-03-26T23:41:19.680Z,8.70
2023-03-26T23:43:55.833Z,8.60
2023-03-26T23:46:25.660Z,8.60
2023-03-26T23:48:53.474Z,8.60
2023-03-26T23:51:21.727Z,8.60
2023-03-26T23:53:49.688Z,8.60
2023-03-26T23:56:17.752Z,8.60
2023-03-26T23:58:45.832Z,8.60
